This is the latest recevied weather packets stored in our database for station/object YO2MAS-13. If no packets are shown the sender has not sent any weather packets the latest 10 day(s).
| Time | Temp. | Humidity | Pressure | Rain* | Wind** | Luminosity | Snow |
|---|---|---|---|---|---|---|---|
| 1777673723 | 12.22° C | 98% | 1027.4 hPa | - | - | - | - |
| 1777672823 | 11.67° C | 82% | 1027.4 hPa | - | - | - | - |
| 1777671923 | 12.22° C | 77% | 1027.5 hPa | - | - | - | - |
| 1777671026 | 12.22° C | 77% | 1027.5 hPa | - | - | - | - |
| 1777670123 | 12.22° C | 72% | 1027.5 hPa | - | - | - | - |
| 1777669223 | 12.78° C | 62% | 1027.3 hPa | - | - | - | - |
| 1777668323 | 14.44° C | 66% | 1027.1 hPa | - | - | - | - |
| 1777667423 | 13.89° C | 67% | 1027.2 hPa | - | - | - | - |
| 1777666523 | 14.44° C | 67% | 1027.1 hPa | - | - | - | - |
| 1777665623 | 14.44° C | 54% | 1027.1 hPa | - | - | - | - |
| 1777664723 | 15.56° C | 55% | 1027 hPa | - | - | - | - |
| 1777663823 | 15° C | 53% | 1027.1 hPa | - | - | - | - |
| 1777662923 | 15.56° C | 51% | 1026.8 hPa | - | - | - | - |
| 1777662023 | 16.11° C | 46% | 1026.8 hPa | - | - | - | - |
| 1777661123 | 16.67° C | 44% | 1026.8 hPa | - | - | - | - |
| 1777660223 | 17.22° C | 44% | 1026.5 hPa | - | - | - | - |
| 1777659649 | 17.78° C | 43% | 1026.4 hPa | - | - | - | - |
| 1777659323 | 17.78° C | 43% | 1026.4 hPa | - | - | - | - |
| 1777658739 | 18.89° C | 44% | 1026.2 hPa | - | - | - | - |
| 1777658423 | 18.89° C | 44% | 1026.2 hPa | - | - | - | - |
| 1777657523 | 18.33° C | 43% | 1026.1 hPa | - | - | - | - |
| 1777656626 | 19.44° C | 39% | 1025.9 hPa | - | - | - | - |
| 1777655760 | 19.44° C | 41% | 1026 hPa | - | - | - | - |
| 1777655723 | 19.44° C | 41% | 1026 hPa | - | - | - | - |
| 1777654823 | 18.89° C | 39% | 1026 hPa | - | - | - | - |
* Rain since midnight (hover to see other rain measurements)
** Current wind speed in m/s (hover to see current wind gust speed)